Strona główna
METAR-TAF:

METAR-TAF

Lotnisko :

Port lotniczy Genua

Genua, Włochy

Szerokość geograficzna: 44-25N, Długość geograficzna: 008-51E, wysokość: 2 m

Aktualna obserwacja pogody

Raport powstał 30 minut temu, godzina 09:20 UTC
Wiatr 7 kt od południowy wschód
Temperatura 27°C
Wilgotność 70%
Ciśnienie 1020 hPa
Widzialność 10 km lub więcej
Mało chmury na wysokości 2500 ft
Rozproszone chmury na wysokości 4000 ft

METAR: LIMJ 210920Z 14007KT 9999 FEW025 SCT040 27/21 Q1020

czas: 11:50 (09:50 UTC)

Prognoza

Raport powstał 2 godziny i 28 minut temu, godzina 07:22 UTC
Prognoza ważna od 21 godzina 07 UTC do 22 godzina 06 UTC
Wiatr 8 kt od południowo-południowy zachód
Widzialność 10 km lub więcej
Przerywane chmury na wysokości 2000 ft

TAF: LIMJ 210722Z 2107/2206 20008KT 9999 BKN020

Obserwacja i prognoza pogody dla ponad 4000 lotnisk (raport METAR i TAF).

Dostępne stacje oznaczono żółtymi i czerwonymi punktami na mapie.

Najedź kursorem aby zobaczyć nazwę stacji.

Kliknij aby zobaczyć obserwacje i prognozy pogody.

Aby zmienić mapę: kliknij na zielony przycisk z czarnym krzyżykiem, aby powiększyć; na zielony przycisk z myślnikiem, aby pomniejszyć; na zielone strzałki, aby przejść do map sąsiednich.


METAR-TAF: